sensor_id;sensor_type;location;lat;lon;timestamp;pressure;altitude;pressure_sealevel;temperature;humidity
62712;BME280;48772;55.586;37.730;2023-05-08T00:01:48;100683.84;;;4.62;100.00
62712;BME280;48772;55.586;37.730;2023-05-08T00:04:14;100676.97;;;4.58;100.00
62712;BME280;48772;55.586;37.730;2023-05-08T00:06:40;100688.34;;;4.60;100.00
62712;BME280;48772;55.586;37.730;2023-05-08T00:09:06;100655.81;;;4.37;100.00
62712;BME280;48772;55.586;37.730;2023-05-08T00:11:31;100697.09;;;4.61;100.00
62712;BME280;48772;55.586;37.730;2023-05-08T00:13:57;100688.63;;;4.53;100.00
62712;BME280;48772;55.586;37.730;2023-05-08T00:16:23;100701.78;;;4.54;100.00
62712;BME280;48772;55.586;37.730;2023-05-08T00:18:49;100670.19;;;4.30;100.00
62712;BME280;48772;55.586;37.730;2023-05-08T00:21:15;100702.16;;;4.45;100.00
62712;BME280;48772;55.586;37.730;2023-05-08T00:23:40;100712.56;;;4.48;100.00
62712;BME280;48772;55.586;37.730;2023-05-08T00:26:06;100718.09;;;4.42;100.00
62712;BME280;48772;55.586;37.730;2023-05-08T00:28:32;100714.03;;;4.34;100.00
62712;BME280;48772;55.586;37.730;2023-05-08T00:30:59;100718.31;;;4.36;100.00
62712;BME280;48772;55.586;37.730;2023-05-08T00:33:26;100709.84;;;4.28;100.00
62712;BME280;48772;55.586;37.730;2023-05-08T00:36:02;100720.22;;;4.33;100.00
62712;BME280;48772;55.586;37.730;2023-05-08T00:38:30;100718.69;;;4.27;100.00
62712;BME280;48772;55.586;37.730;2023-05-08T00:40:56;100721.28;;;4.29;100.00
62712;BME280;48772;55.586;37.730;2023-05-08T00:43:21;100698.25;;;4.09;100.00
62712;BME280;48772;55.586;37.730;2023-05-08T00:45:54;100708.81;;;4.09;100.00
62712;BME280;48772;55.586;37.730;2023-05-08T00:48:22;100721.97;;;4.11;100.00
62712;BME280;48772;55.586;37.730;2023-05-08T00:50:51;100696.63;;;3.82;100.00
62712;BME280;48772;55.586;37.730;2023-05-08T00:53:19;100641.72;;;3.45;100.00
62712;BME280;48772;55.586;37.730;2023-05-08T00:55:48;100701.78;;;3.85;100.00
62712;BME280;48772;55.586;37.730;2023-05-08T00:58:14;100722.84;;;3.87;100.00
62712;BME280;48772;55.586;37.730;2023-05-08T01:00:40;100722.72;;;3.90;100.00
62712;BME280;48772;55.586;37.730;2023-05-08T01:03:08;100735.00;;;3.91;100.00
62712;BME280;48772;55.586;37.730;2023-05-08T01:05:35;100702.19;;;3.75;100.00
62712;BME280;48772;55.586;37.730;2023-05-08T01:08:01;100705.41;;;3.83;100.00
62712;BME280;48772;55.586;37.730;2023-05-08T01:10:46;100718.25;;;3.92;100.00
62712;BME280;48772;55.586;37.730;2023-05-08T01:16:34;100727.97;;;4.14;100.00
62712;BME280;48772;55.586;37.730;2023-05-08T01:33:11;100738.53;;;4.37;100.00
62712;BME280;48772;55.586;37.730;2023-05-08T01:35:48;100739.50;;;4.35;100.00
62712;BME280;48772;55.586;37.730;2023-05-08T01:41:26;100741.63;;;4.25;100.00
62712;BME280;48772;55.586;37.730;2023-05-08T01:44:11;100742.94;;;4.14;100.00
62712;BME280;48772;55.586;37.730;2023-05-08T01:46:38;100738.34;;;3.96;100.00
62712;BME280;48772;55.586;37.730;2023-05-08T01:49:23;100749.22;;;3.87;100.00
62712;BME280;48772;55.586;37.730;2023-05-08T01:52:02;100756.66;;;3.76;100.00
62712;BME280;48772;55.586;37.730;2023-05-08T01:54:40;100757.72;;;3.70;100.00
62712;BME280;48772;55.586;37.730;2023-05-08T01:57:09;100730.13;;;3.56;100.00
62712;BME280;48772;55.586;37.730;2023-05-08T01:59:37;100727.50;;;3.56;100.00
62712;BME280;48772;55.586;37.730;2023-05-08T02:02:03;100739.84;;;3.53;100.00
62712;BME280;48772;55.586;37.730;2023-05-08T02:04:32;100749.47;;;3.54;100.00
62712;BME280;48772;55.586;37.730;2023-05-08T02:06:59;100764.91;;;3.67;100.00
62712;BME280;48772;55.586;37.730;2023-05-08T02:09:27;100772.84;;;3.65;100.00
62712;BME280;48772;55.586;37.730;2023-05-08T02:11:59;100776.34;;;3.66;100.00
62712;BME280;48772;55.586;37.730;2023-05-08T02:14:26;100745.81;;;3.58;100.00
62712;BME280;48772;55.586;37.730;2023-05-08T02:16:54;100757.88;;;3.66;100.00
62712;BME280;48772;55.586;37.730;2023-05-08T02:19:24;100766.13;;;3.81;100.00
62712;BME280;48772;55.586;37.730;2023-05-08T02:21:52;100770.69;;;4.01;100.00
62712;BME280;48772;55.586;37.730;2023-05-08T02:24:19;100771.19;;;4.12;100.00
62712;BME280;48772;55.586;37.730;2023-05-08T02:26:46;100774.44;;;4.18;100.00
62712;BME280;48772;55.586;37.730;2023-05-08T02:29:13;100772.31;;;4.28;100.00
62712;BME280;48772;55.586;37.730;2023-05-08T02:31:40;100779.56;;;4.46;100.00
62712;BME280;48772;55.586;37.730;2023-05-08T02:34:09;100779.97;;;4.58;100.00
62712;BME280;48772;55.586;37.730;2023-05-08T02:36:37;100783.00;;;4.71;100.00
62712;BME280;48772;55.586;37.730;2023-05-08T02:39:04;100776.69;;;4.75;100.00
62712;BME280;48772;55.586;37.730;2023-05-08T02:41:32;100785.97;;;4.85;100.00
62712;BME280;48772;55.586;37.730;2023-05-08T02:43:58;100780.69;;;4.85;100.00
62712;BME280;48772;55.586;37.730;2023-05-08T02:46:33;100786.38;;;4.97;100.00
62712;BME280;48772;55.586;37.730;2023-05-08T02:49:06;100747.50;;;4.78;100.00
62712;BME280;48772;55.586;37.730;2023-05-08T02:51:42;100761.16;;;4.89;100.00
62712;BME280;48772;55.586;37.730;2023-05-08T02:54:28;100760.97;;;4.93;100.00
62712;BME280;48772;55.586;37.730;2023-05-08T02:59:39;100784.41;;;5.24;100.00
62712;BME280;48772;55.586;37.730;2023-05-08T03:02:27;100789.19;;;5.36;100.00
62712;BME280;48772;55.586;37.730;2023-05-08T03:05:02;100771.97;;;5.26;100.00
62712;BME280;48772;55.586;37.730;2023-05-08T03:07:31;100794.91;;;5.47;100.00
62712;BME280;48772;55.586;37.730;2023-05-08T03:10:04;100799.13;;;5.51;100.00
62712;BME280;48772;55.586;37.730;2023-05-08T03:12:39;100771.22;;;5.44;100.00
62712;BME280;48772;55.586;37.730;2023-05-08T03:15:11;100810.66;;;5.70;100.00
62712;BME280;48772;55.586;37.730;2023-05-08T03:17:41;100806.91;;;5.75;100.00
62712;BME280;48772;55.586;37.730;2023-05-08T03:20:11;100779.66;;;5.73;100.00
62712;BME280;48772;55.586;37.730;2023-05-08T03:22:41;100802.78;;;5.90;100.00
62712;BME280;48772;55.586;37.730;2023-05-08T03:25:09;100793.09;;;5.89;100.00
62712;BME280;48772;55.586;37.730;2023-05-08T03:27:40;100810.91;;;6.05;100.00
62712;BME280;48772;55.586;37.730;2023-05-08T03:30:07;100800.78;;;6.15;100.00
62712;BME280;48772;55.586;37.730;2023-05-08T03:32:40;100811.69;;;6.27;100.00
62712;BME280;48772;55.586;37.730;2023-05-08T03:35:08;100820.25;;;6.34;100.00
62712;BME280;48772;55.586;37.730;2023-05-08T03:37:34;100797.31;;;6.33;100.00
62712;BME280;48772;55.586;37.730;2023-05-08T03:40:00;100797.75;;;6.42;100.00
62712;BME280;48772;55.586;37.730;2023-05-08T03:42:26;100782.88;;;6.40;100.00
62712;BME280;48772;55.586;37.730;2023-05-08T03:44:53;100803.09;;;6.61;100.00
62712;BME280;48772;55.586;37.730;2023-05-08T03:47:23;100813.44;;;6.67;100.00
62712;BME280;48772;55.586;37.730;2023-05-08T03:49:51;100815.56;;;6.77;100.00
62712;BME280;48772;55.586;37.730;2023-05-08T03:52:17;100793.19;;;6.64;100.00
62712;BME280;48772;55.586;37.730;2023-05-08T03:54:43;100806.53;;;6.81;100.00
62712;BME280;48772;55.586;37.730;2023-05-08T03:57:10;100807.53;;;6.97;100.00
62712;BME280;48772;55.586;37.730;2023-05-08T03:59:57;100805.91;;;6.95;100.00
62712;BME280;48772;55.586;37.730;2023-05-08T04:02:37;100803.09;;;6.98;100.00
62712;BME280;48772;55.586;37.730;2023-05-08T04:05:16;100805.63;;;7.01;100.00
62712;BME280;48772;55.586;37.730;2023-05-08T04:08:00;100828.47;;;7.22;100.00
62712;BME280;48772;55.586;37.730;2023-05-08T04:10:31;100827.94;;;7.33;100.00
62712;BME280;48772;55.586;37.730;2023-05-08T04:15:29;100835.88;;;7.51;100.00
62712;BME280;48772;55.586;37.730;2023-05-08T04:18:12;100823.78;;;7.63;100.00
62712;BME280;48772;55.586;37.730;2023-05-08T04:20:40;100832.34;;;7.69;100.00
62712;BME280;48772;55.586;37.730;2023-05-08T04:23:08;100824.72;;;7.62;100.00
62712;BME280;48772;55.586;37.730;2023-05-08T04:25:37;100816.56;;;7.66;100.00
62712;BME280;48772;55.586;37.730;2023-05-08T04:28:09;100804.19;;;7.48;100.00
62712;BME280;48772;55.586;37.730;2023-05-08T04:30:36;100841.25;;;7.85;100.00
62712;BME280;48772;55.586;37.730;2023-05-08T04:33:07;100826.38;;;7.64;100.00
62712;BME280;48772;55.586;37.730;2023-05-08T04:35:37;100810.41;;;7.83;100.00
62712;BME280;48772;55.586;37.730;2023-05-08T04:38:03;100787.34;;;7.83;100.00
62712;BME280;48772;55.586;37.730;2023-05-08T04:40:29;100811.41;;;7.97;100.00
62712;BME280;48772;55.586;37.730;2023-05-08T04:42:59;100787.63;;;7.94;100.00
62712;BME280;48772;55.586;37.730;2023-05-08T04:45:25;100831.16;;;8.26;100.00
62712;BME280;48772;55.586;37.730;2023-05-08T04:47:51;100813.59;;;8.23;100.00
62712;BME280;48772;55.586;37.730;2023-05-08T04:50:17;100819.63;;;8.27;100.00
62712;BME280;48772;55.586;37.730;2023-05-08T04:52:44;100811.16;;;8.19;100.00
62712;BME280;48772;55.586;37.730;2023-05-08T04:55:09;100776.84;;;8.14;100.00
62712;BME280;48772;55.586;37.730;2023-05-08T04:57:37;100792.47;;;8.37;99.26
62712;BME280;48772;55.586;37.730;2023-05-08T05:00:04;100821.69;;;8.70;99.25
62712;BME280;48772;55.586;37.730;2023-05-08T05:02:39;100804.53;;;8.60;97.54
62712;BME280;48772;55.586;37.730;2023-05-08T05:05:08;100821.91;;;8.82;94.08
62712;BME280;48772;55.586;37.730;2023-05-08T05:07:34;100839.09;;;8.92;92.80
62712;BME280;48772;55.586;37.730;2023-05-08T05:10:01;100845.69;;;9.01;89.85
62712;BME280;48772;55.586;37.730;2023-05-08T05:12:35;100848.56;;;9.13;87.74
62712;BME280;48772;55.586;37.730;2023-05-08T05:15:02;100825.56;;;9.12;85.75
62712;BME280;48772;55.586;37.730;2023-05-08T05:17:33;100805.28;;;9.10;82.69
62712;BME280;48772;55.586;37.730;2023-05-08T05:20:03;100803.56;;;9.24;83.55
62712;BME280;48772;55.586;37.730;2023-05-08T05:22:31;100847.41;;;9.48;81.90
62712;BME280;48772;55.586;37.730;2023-05-08T05:24:57;100816.09;;;9.38;81.09
62712;BME280;48772;55.586;37.730;2023-05-08T05:27:27;100814.72;;;9.46;75.91
62712;BME280;48772;55.586;37.730;2023-05-08T05:29:53;100834.09;;;9.64;73.65
62712;BME280;48772;55.586;37.730;2023-05-08T05:32:19;100844.09;;;9.90;73.29
62712;BME280;48772;55.586;37.730;2023-05-08T05:34:49;100838.31;;;9.97;71.46
62712;BME280;48772;55.586;37.730;2023-05-08T05:37:15;100829.31;;;9.84;67.67
62712;BME280;48772;55.586;37.730;2023-05-08T05:39:41;100858.84;;;10.11;70.08
62712;BME280;48772;55.586;37.730;2023-05-08T05:42:07;100850.88;;;10.11;67.78
62712;BME280;48772;55.586;37.730;2023-05-08T05:44:36;100810.22;;;10.07;67.42
62712;BME280;48772;55.586;37.730;2023-05-08T05:47:02;100832.53;;;10.35;66.07
62712;BME280;48772;55.586;37.730;2023-05-08T05:49:34;100806.81;;;10.20;64.94
62712;BME280;48772;55.586;37.730;2023-05-08T05:52:00;100826.09;;;10.53;64.62
62712;BME280;48772;55.586;37.730;2023-05-08T05:54:26;100824.16;;;10.55;64.49
62712;BME280;48772;55.586;37.730;2023-05-08T05:56:52;100844.50;;;10.57;61.76
62712;BME280;48772;55.586;37.730;2023-05-08T05:59:17;100811.06;;;10.52;61.78
62712;BME280;48772;55.586;37.730;2023-05-08T06:01:43;100833.72;;;10.73;61.69
62712;BME280;48772;55.586;37.730;2023-05-08T06:04:09;100815.03;;;10.73;59.99
62712;BME280;48772;55.586;37.730;2023-05-08T06:06:35;100822.25;;;10.99;59.49
62712;BME280;48772;55.586;37.730;2023-05-08T06:09:01;100831.78;;;11.17;57.96
62712;BME280;48772;55.586;37.730;2023-05-08T06:11:27;100840.22;;;11.37;57.04
62712;BME280;48772;55.586;37.730;2023-05-08T06:13:52;100852.72;;;11.37;55.19
62712;BME280;48772;55.586;37.730;2023-05-08T06:16:19;100839.72;;;11.45;55.54
62712;BME280;48772;55.586;37.730;2023-05-08T06:18:49;100854.59;;;11.63;52.81
62712;BME280;48772;55.586;37.730;2023-05-08T06:21:15;100798.78;;;11.18;50.68
62712;BME280;48772;55.586;37.730;2023-05-08T06:23:41;100847.44;;;11.49;50.66
62712;BME280;48772;55.586;37.730;2023-05-08T06:26:08;100820.63;;;11.51;50.44
62712;BME280;48772;55.586;37.730;2023-05-08T06:28:34;100818.09;;;11.76;50.23
62712;BME280;48772;55.586;37.730;2023-05-08T06:31:00;100814.56;;;11.75;49.47
62712;BME280;48772;55.586;37.730;2023-05-08T06:33:26;100812.13;;;11.85;48.62
62712;BME280;48772;55.586;37.730;2023-05-08T06:35:52;100835.63;;;12.31;48.99
62712;BME280;48772;55.586;37.730;2023-05-08T06:38:21;100819.25;;;12.23;48.05
62712;BME280;48772;55.586;37.730;2023-05-08T06:40:48;100833.19;;;12.53;48.56
62712;BME280;48772;55.586;37.730;2023-05-08T06:43:16;100822.91;;;12.60;47.10
62712;BME280;48772;55.586;37.730;2023-05-08T06:45:45;100833.41;;;12.75;46.66
62712;BME280;48772;55.586;37.730;2023-05-08T06:48:12;100834.88;;;12.92;46.14
62712;BME280;48772;55.586;37.730;2023-05-08T06:50:38;100807.31;;;12.41;46.70
62712;BME280;48772;55.586;37.730;2023-05-08T06:53:06;100829.34;;;12.20;46.11
62712;BME280;48772;55.586;37.730;2023-05-08T06:55:32;100830.00;;;12.48;44.34
62712;BME280;48772;55.586;37.730;2023-05-08T06:57:58;100810.72;;;12.56;42.67
62712;BME280;48772;55.586;37.730;2023-05-08T07:00:24;100818.13;;;13.02;42.49
62712;BME280;48772;55.586;37.730;2023-05-08T07:02:50;100783.28;;;13.15;43.17
62712;BME280;48772;55.586;37.730;2023-05-08T07:05:16;100828.13;;;13.60;42.11
62712;BME280;48772;55.586;37.730;2023-05-08T07:07:44;100801.69;;;13.90;42.42
62712;BME280;48772;55.586;37.730;2023-05-08T07:10:14;100815.38;;;13.98;40.82
62712;BME280;48772;55.586;37.730;2023-05-08T07:12:41;100786.69;;;13.64;39.89
62712;BME280;48772;55.586;37.730;2023-05-08T07:15:07;100803.81;;;13.74;41.24
62712;BME280;48772;55.586;37.730;2023-05-08T07:17:35;100784.31;;;13.12;40.65
62712;BME280;48772;55.586;37.730;2023-05-08T07:20:02;100790.94;;;12.58;42.10
62712;BME280;48772;55.586;37.730;2023-05-08T07:22:31;100831.28;;;12.43;42.77
62712;BME280;48772;55.586;37.730;2023-05-08T07:25:00;100822.81;;;12.61;42.25
62712;BME280;48772;55.586;37.730;2023-05-08T07:30:10;100813.50;;;13.64;40.38
62712;BME280;48772;55.586;37.730;2023-05-08T07:32:39;100798.94;;;14.03;40.43
62712;BME280;48772;55.586;37.730;2023-05-08T07:35:06;100795.13;;;13.47;41.18
62712;BME280;48772;55.586;37.730;2023-05-08T07:37:40;100776.03;;;13.75;39.01
62712;BME280;48772;55.586;37.730;2023-05-08T07:40:06;100780.25;;;13.07;38.76
62712;BME280;48772;55.586;37.730;2023-05-08T07:42:42;100804.22;;;13.21;38.78
62712;BME280;48772;55.586;37.730;2023-05-08T07:45:09;100816.59;;;12.86;39.95
62712;BME280;48772;55.586;37.730;2023-05-08T07:47:47;100807.00;;;12.46;40.17
62712;BME280;48772;55.586;37.730;2023-05-08T07:50:14;100815.09;;;12.32;40.37
62712;BME280;48772;55.586;37.730;2023-05-08T07:52:40;100800.00;;;12.06;41.35
62712;BME280;48772;55.586;37.730;2023-05-08T07:55:06;100820.13;;;12.24;40.78
62712;BME280;48772;55.586;37.730;2023-05-08T07:57:39;100805.25;;;13.07;38.64
62712;BME280;48772;55.586;37.730;2023-05-08T08:00:23;100803.28;;;13.93;37.64
62712;BME280;48772;55.586;37.730;2023-05-08T08:02:52;100786.97;;;14.30;36.97
62712;BME280;48772;55.586;37.730;2023-05-08T08:05:18;100786.25;;;14.39;36.15
62712;BME280;48772;55.586;37.730;2023-05-08T08:07:43;100789.69;;;14.85;36.03
62712;BME280;48772;55.586;37.730;2023-05-08T08:10:09;100784.78;;;15.23;35.54
62712;BME280;48772;55.586;37.730;2023-05-08T08:12:36;100781.84;;;15.37;35.28
62712;BME280;48772;55.586;37.730;2023-05-08T08:15:02;100805.91;;;15.81;34.98
62712;BME280;48772;55.586;37.730;2023-05-08T08:17:50;100803.13;;;16.03;34.25
62712;BME280;48772;55.586;37.730;2023-05-08T08:20:16;100800.38;;;16.14;33.60
62712;BME280;48772;55.586;37.730;2023-05-08T08:22:41;100792.44;;;16.13;32.67
62712;BME280;48772;55.586;37.730;2023-05-08T08:25:07;100815.06;;;15.25;33.77
62712;BME280;48772;55.586;37.730;2023-05-08T08:30:17;100777.25;;;14.06;34.00
62712;BME280;48772;55.586;37.730;2023-05-08T08:32:43;100793.88;;;13.87;34.53
62712;BME280;48772;55.586;37.730;2023-05-08T08:35:10;100787.47;;;13.77;34.87
62712;BME280;48772;55.586;37.730;2023-05-08T08:37:36;100789.72;;;13.60;34.38
62712;BME280;48772;55.586;37.730;2023-05-08T08:40:20;100781.66;;;13.36;34.43
62712;BME280;48772;55.586;37.730;2023-05-08T08:42:46;100789.94;;;14.60;32.89
62712;BME280;48772;55.586;37.730;2023-05-08T08:45:12;100742.78;;;15.11;32.54
62712;BME280;48772;55.586;37.730;2023-05-08T08:47:38;100783.06;;;15.44;32.83
62712;BME280;48772;55.586;37.730;2023-05-08T08:50:08;100770.69;;;15.84;32.59
62712;BME280;48772;55.586;37.730;2023-05-08T08:53:00;100775.03;;;15.96;31.53
62712;BME280;48772;55.586;37.730;2023-05-08T08:55:31;100739.69;;;15.38;31.64
62712;BME280;48772;55.586;37.730;2023-05-08T08:58:37;100772.28;;;16.07;31.45
62712;BME280;48772;55.586;37.730;2023-05-08T09:01:24;100751.94;;;15.09;32.34
62712;BME280;48772;55.586;37.730;2023-05-08T09:03:56;100769.09;;;14.75;33.49
62712;BME280;48772;55.586;37.730;2023-05-08T09:06:23;100784.78;;;14.57;34.47
62712;BME280;48772;55.586;37.730;2023-05-08T09:08:50;100768.28;;;14.29;34.27
62712;BME280;48772;55.586;37.730;2023-05-08T09:11:16;100756.59;;;13.95;33.89
62712;BME280;48772;55.586;37.730;2023-05-08T09:13:42;100760.84;;;13.87;33.53
62712;BME280;48772;55.586;37.730;2023-05-08T09:16:08;100762.69;;;13.63;33.25
62712;BME280;48772;55.586;37.730;2023-05-08T09:18:34;100780.19;;;13.32;33.78
62712;BME280;48772;55.586;37.730;2023-05-08T09:21:00;100779.78;;;13.25;34.14
62712;BME280;48772;55.586;37.730;2023-05-08T09:23:27;100767.13;;;13.27;34.35
62712;BME280;48772;55.586;37.730;2023-05-08T09:25:52;100756.88;;;13.21;34.58
62712;BME280;48772;55.586;37.730;2023-05-08T09:28:19;100778.72;;;13.28;34.30
62712;BME280;48772;55.586;37.730;2023-05-08T09:30:58;100744.91;;;13.14;34.41
62712;BME280;48772;55.586;37.730;2023-05-08T09:33:26;100756.47;;;13.62;34.72
62712;BME280;48772;55.586;37.730;2023-05-08T09:35:53;100770.00;;;13.95;33.22
62712;BME280;48772;55.586;37.730;2023-05-08T09:38:33;100732.94;;;14.24;32.49
62712;BME280;48772;55.586;37.730;2023-05-08T09:41:15;100752.78;;;15.20;31.10
62712;BME280;48772;55.586;37.730;2023-05-08T09:43:43;100750.25;;;15.08;32.65
62712;BME280;48772;55.586;37.730;2023-05-08T09:48:46;100733.28;;;14.96;31.72
62712;BME280;48772;55.586;37.730;2023-05-08T09:51:13;100731.22;;;14.67;31.17
62712;BME280;48772;55.586;37.730;2023-05-08T09:53:39;100759.19;;;14.75;32.49
62712;BME280;48772;55.586;37.730;2023-05-08T09:56:05;100754.56;;;14.55;32.68
62712;BME280;48772;55.586;37.730;2023-05-08T09:58:42;100755.97;;;14.26;32.60
62712;BME280;48772;55.586;37.730;2023-05-08T10:01:27;100739.78;;;13.93;34.08
62712;BME280;48772;55.586;37.730;2023-05-08T10:03:53;100755.34;;;13.88;34.38
62712;BME280;48772;55.586;37.730;2023-05-08T10:06:20;100738.00;;;13.70;34.84
62712;BME280;48772;55.586;37.730;2023-05-08T10:08:46;100744.03;;;13.61;34.77
62712;BME280;48772;55.586;37.730;2023-05-08T10:11:17;100737.03;;;13.48;35.24
62712;BME280;48772;55.586;37.730;2023-05-08T10:13:45;100758.91;;;13.65;34.78
62712;BME280;48772;55.586;37.730;2023-05-08T10:16:15;100720.97;;;13.48;34.62
62712;BME280;48772;55.586;37.730;2023-05-08T10:18:46;100731.13;;;13.66;34.57
62712;BME280;48772;55.586;37.730;2023-05-08T10:21:13;100752.50;;;13.79;34.80
62712;BME280;48772;55.586;37.730;2023-05-08T10:23:41;100741.47;;;13.60;34.91
62712;BME280;48772;55.586;37.730;2023-05-08T10:26:17;100748.25;;;13.53;35.79
62712;BME280;48772;55.586;37.730;2023-05-08T10:28:55;100759.91;;;13.64;36.71
62712;BME280;48772;55.586;37.730;2023-05-08T10:31:25;100755.22;;;13.55;36.02
62712;BME280;48772;55.586;37.730;2023-05-08T10:33:59;100762.84;;;13.72;36.17
62712;BME280;48772;55.586;37.730;2023-05-08T10:36:27;100732.38;;;13.73;35.44
62712;BME280;48772;55.586;37.730;2023-05-08T10:38:53;100751.59;;;13.91;36.10
62712;BME280;48772;55.586;37.730;2023-05-08T10:41:19;100729.38;;;13.78;35.57
62712;BME280;48772;55.586;37.730;2023-05-08T10:43:48;100739.25;;;13.88;35.42
62712;BME280;48772;55.586;37.730;2023-05-08T10:46:21;100728.03;;;13.83;34.52
62712;BME280;48772;55.586;37.730;2023-05-08T10:54:33;100706.53;;;14.18;35.00
62712;BME280;48772;55.586;37.730;2023-05-08T10:57:11;100706.69;;;14.27;34.49
62712;BME280;48772;55.586;37.730;2023-05-08T10:59:37;100743.19;;;14.41;34.64
62712;BME280;48772;55.586;37.730;2023-05-08T11:02:04;100728.28;;;14.37;34.58
62712;BME280;48772;55.586;37.730;2023-05-08T11:04:32;100733.19;;;14.54;34.10
62712;BME280;48772;55.586;37.730;2023-05-08T11:06:58;100737.56;;;14.55;34.62
62712;BME280;48772;55.586;37.730;2023-05-08T11:09:45;100710.72;;;14.44;34.36
62712;BME280;48772;55.586;37.730;2023-05-08T11:12:19;100736.75;;;14.54;34.26
62712;BME280;48772;55.586;37.730;2023-05-08T11:14:54;100725.75;;;14.57;33.95
62712;BME280;48772;55.586;37.730;2023-05-08T11:17:23;100698.41;;;14.63;34.20
62712;BME280;48772;55.586;37.730;2023-05-08T11:19:57;100691.34;;;14.62;33.74
62712;BME280;48772;55.586;37.730;2023-05-08T11:22:26;100731.84;;;14.81;32.94
62712;BME280;48772;55.586;37.730;2023-05-08T11:30:36;100699.69;;;14.03;33.78
62712;BME280;48772;55.586;37.730;2023-05-08T11:40:58;100740.75;;;13.92;34.49
62712;BME280;48772;55.586;37.730;2023-05-08T11:46:03;100729.28;;;13.90;34.89
62712;BME280;48772;55.586;37.730;2023-05-08T11:48:32;100723.88;;;13.79;34.43
62712;BME280;48772;55.586;37.730;2023-05-08T11:51:02;100720.00;;;13.83;35.03
62712;BME280;48772;55.586;37.730;2023-05-08T11:53:29;100730.38;;;13.88;34.26
62712;BME280;48772;55.586;37.730;2023-05-08T11:55:57;100712.66;;;13.74;33.61
62712;BME280;48772;55.586;37.730;2023-05-08T11:58:23;100693.78;;;13.76;34.09
62712;BME280;48772;55.586;37.730;2023-05-08T12:00:49;100724.53;;;13.94;33.91
62712;BME280;48772;55.586;37.730;2023-05-08T12:03:20;100726.38;;;13.93;34.46
62712;BME280;48772;55.586;37.730;2023-05-08T12:05:47;100722.91;;;13.80;34.81
62712;BME280;48772;55.586;37.730;2023-05-08T12:08:15;100718.28;;;13.82;34.46
62712;BME280;48772;55.586;37.730;2023-05-08T12:10:52;100694.34;;;13.68;34.60
62712;BME280;48772;55.586;37.730;2023-05-08T12:15:50;100691.41;;;13.60;34.77
62712;BME280;48772;55.586;37.730;2023-05-08T12:18:23;100710.66;;;13.65;34.71
62712;BME280;48772;55.586;37.730;2023-05-08T12:20:56;100720.22;;;13.80;35.17
62712;BME280;48772;55.586;37.730;2023-05-08T12:23:24;100725.47;;;13.82;35.17
62712;BME280;48772;55.586;37.730;2023-05-08T12:25:51;100721.19;;;13.79;34.55
62712;BME280;48772;55.586;37.730;2023-05-08T12:28:23;100709.25;;;13.72;34.80
62712;BME280;48772;55.586;37.730;2023-05-08T12:30:49;100714.03;;;13.80;34.82
62712;BME280;48772;55.586;37.730;2023-05-08T12:33:15;100717.16;;;13.74;34.51
62712;BME280;48772;55.586;37.730;2023-05-08T12:35:42;100694.16;;;13.82;34.24
62712;BME280;48772;55.586;37.730;2023-05-08T12:38:10;100684.88;;;13.75;34.54
62712;BME280;48772;55.586;37.730;2023-05-08T12:40:41;100716.47;;;13.94;33.70
62712;BME280;48772;55.586;37.730;2023-05-08T12:43:08;100699.28;;;13.85;34.02
62712;BME280;48772;55.586;37.730;2023-05-08T12:45:41;100695.31;;;14.02;34.52
62712;BME280;48772;55.586;37.730;2023-05-08T12:48:09;100692.00;;;14.09;34.08
62712;BME280;48772;55.586;37.730;2023-05-08T12:51:13;100704.47;;;14.10;33.70
62712;BME280;48772;55.586;37.730;2023-05-08T12:53:41;100665.41;;;13.95;33.77
62712;BME280;48772;55.586;37.730;2023-05-08T12:56:10;100673.00;;;14.12;33.31
62712;BME280;48772;55.586;37.730;2023-05-08T12:58:39;100680.72;;;14.28;32.62
62712;BME280;48772;55.586;37.730;2023-05-08T13:01:08;100680.50;;;14.31;32.08
62712;BME280;48772;55.586;37.730;2023-05-08T13:03:36;100664.88;;;14.25;32.15
62712;BME280;48772;55.586;37.730;2023-05-08T13:06:02;100662.53;;;14.42;32.14
62712;BME280;48772;55.586;37.730;2023-05-08T13:08:33;100660.06;;;14.06;31.67
62712;BME280;48772;55.586;37.730;2023-05-08T13:11:04;100683.53;;;14.37;32.56
62712;BME280;48772;55.586;37.730;2023-05-08T13:13:34;100689.88;;;14.47;31.80
62712;BME280;48772;55.586;37.730;2023-05-08T13:16:02;100674.25;;;14.41;31.51
62712;BME280;48772;55.586;37.730;2023-05-08T13:18:29;100677.69;;;14.32;32.22
62712;BME280;48772;55.586;37.730;2023-05-08T13:21:00;100652.91;;;14.29;32.75
62712;BME280;48772;55.586;37.730;2023-05-08T13:23:30;100683.16;;;14.64;31.84
62712;BME280;48772;55.586;37.730;2023-05-08T13:25:56;100659.97;;;14.63;32.15
62712;BME280;48772;55.586;37.730;2023-05-08T13:28:21;100678.50;;;14.77;31.63
62712;BME280;48772;55.586;37.730;2023-05-08T13:30:47;100680.56;;;14.84;32.41
62712;BME280;48772;55.586;37.730;2023-05-08T13:33:13;100639.72;;;14.59;32.19
62712;BME280;48772;55.586;37.730;2023-05-08T13:35:42;100672.13;;;14.89;31.99
62712;BME280;48772;55.586;37.730;2023-05-08T13:38:11;100657.66;;;14.69;31.40
62712;BME280;48772;55.586;37.730;2023-05-08T13:40:37;100666.97;;;14.43;31.78
62712;BME280;48772;55.586;37.730;2023-05-08T13:43:06;100663.28;;;14.33;31.91
62712;BME280;48772;55.586;37.730;2023-05-08T13:45:34;100679.03;;;14.38;31.93
62712;BME280;48772;55.586;37.730;2023-05-08T13:48:04;100682.75;;;14.13;31.70
62712;BME280;48772;55.586;37.730;2023-05-08T13:50:30;100671.28;;;14.11;31.99